Time;durP1;ratioP1;P1;durP2;ratioP2;P2;SDS_P1;SDS_P2;PMS_P1;PMS_P2;Temp;Humidity;BMP_temperature;BMP_pressure;BME280_temperature;BME280_humidity;BME280_pressure;Samples;Min_cycle;Max_cycle;Signal;HPM_P1;HPM_P2
2022/09/16 00:01:11;;;;;;;2.97;1.20;;;;;;;11.08;74.61;99689.91;10521838;28;20445;-79
2022/09/16 00:06:20;;;;;;;3.10;1.17;;;;;;;11.39;73.53;99690.59;10528471;28;20043;-79
2022/09/16 00:11:24;;;;;;;8.70;2.03;;;;;;;11.31;74.10;99688.63;10504583;28;20047;-79
2022/09/16 00:16:28;;;;;;;4.60;1.55;;;;;;;11.24;74.71;99687.50;10518353;28;20045;-79
2022/09/16 00:21:32;;;;;;;4.72;1.92;;;;;;;11.25;74.49;99684.69;10528886;28;20051;-77
2022/09/16 00:26:37;;;;;;;5.55;1.60;;;;;;;11.44;73.98;99686.47;10530193;28;20052;-79
2022/09/16 00:31:40;;;;;;;5.07;1.80;;;;;;;11.40;73.91;99693.13;10522568;28;20044;-79
2022/09/16 00:36:44;;;;;;;7.13;2.22;;;;;;;11.60;73.37;99679.59;10535031;28;20047;-77
2022/09/16 00:41:47;;;;;;;7.22;2.65;;;;;;;11.24;74.59;99688.38;10519411;28;20565;-79
2022/09/16 00:46:50;;;;;;;3.67;1.58;;;;;;;11.34;74.68;99679.44;10531633;28;20043;-79
2022/09/16 00:52:00;;;;;;;5.63;1.73;;;;;;;11.53;74.10;99681.22;10519197;28;20059;-77
2022/09/16 00:57:05;;;;;;;4.28;2.05;;;;;;;11.39;74.77;99679.84;10529267;28;20068;-77
2022/09/16 01:02:11;;;;;;;7.47;2.58;;;;;;;10.98;77.20;99676.50;10526154;28;20079;-79
2022/09/16 01:07:18;;;;;;;6.97;2.13;;;;;;;11.03;77.08;99669.72;10520803;28;20048;-78
2022/09/16 01:12:21;;;;;;;4.57;2.05;;;;;;;11.25;75.90;99682.00;10529415;28;20040;-80
2022/09/16 01:17:28;;;;;;;;;;;;;;;11.20;76.03;99676.22;10510295;28;20060;-78
2022/09/16 01:22:46;;;;;;;3.17;1.85;;;;;;;11.05;76.73;99674.94;10499803;28;19969;-79
2022/09/16 01:28:13;;;;;;;3.95;1.90;;;;;;;10.99;77.15;99680.88;10540257;28;20036;-77
2022/09/16 01:33:28;;;;;;;2.40;1.73;;;;;;;11.02;76.92;99681.44;10529855;28;20112;-80
2022/09/16 01:38:50;;;;;;;3.88;1.60;;;;;;;11.25;75.49;99673.94;10517504;28;20047;-80
2022/09/16 01:44:00;;;;;;;5.50;1.42;;;;;;;10.82;76.85;99675.25;10526767;28;20505;-80
2022/09/16 01:49:16;;;;;;;5.38;2.20;;;;;;;11.18;75.73;99664.75;10520253;28;20405;-80
2022/09/16 01:54:27;;;;;;;3.67;1.70;;;;;;;11.12;75.37;99677.91;10499498;28;20049;-80
2022/09/16 01:59:38;;;;;;;5.20;1.98;;;;;;;10.97;75.71;99681.06;10520010;28;20064;-79
2022/09/16 02:04:47;;;;;;;3.10;1.52;;;;;;;10.57;77.53;99676.69;10499927;28;20076;-79
2022/09/16 02:09:55;;;;;;;8.30;1.95;;;;;;;10.56;77.00;99672.31;10520905;28;20094;-78
2022/09/16 02:15:05;;;;;;;5.43;1.40;;;;;;;10.43;77.72;99668.22;10521962;28;20094;-79
2022/09/16 02:20:13;;;;;;;4.30;1.75;;;;;;;10.41;77.81;99675.56;10521171;28;20044;-79
2022/09/16 02:25:19;;;;;;;3.92;1.80;;;;;;;10.33;77.91;99678.94;10518507;28;20036;-79
2022/09/16 02:30:23;;;;;;;4.03;1.88;;;;;;;10.20;78.59;99673.81;10499219;28;20091;-79
2022/09/16 02:35:30;;;;;;;5.18;2.00;;;;;;;10.04;79.50;99685.13;10520379;28;20119;-79
2022/09/16 02:40:37;;;;;;;3.28;1.92;;;;;;;10.51;77.76;99671.88;10525031;28;20051;-79
2022/09/16 02:45:48;;;;;;;6.05;2.38;;;;;;;10.16;79.07;99675.94;10522340;28;20111;-80
2022/09/16 02:51:01;;;;;;;3.60;2.42;;;;;;;10.40;77.95;99682.78;10520621;28;20596;-78
2022/09/16 02:56:13;;;;;;;5.57;2.72;;;;;;;10.37;78.26;99680.38;10515826;28;20040;-79
2022/09/16 03:01:17;;;;;;;7.22;2.50;;;;;;;10.29;78.70;99677.53;10515151;28;20033;-79
2022/09/16 03:06:23;;;;;;;6.20;2.33;;;;;;;10.39;78.25;99684.63;10498499;28;20040;-79
2022/09/16 03:11:41;;;;;;;5.60;2.50;;;;;;;10.70;77.69;99681.78;10510001;28;20090;-80
2022/09/16 03:16:54;;;;;;;5.32;2.30;;;;;;;10.49;78.10;99670.34;10508467;28;20060;-79
2022/09/16 03:22:02;;;;;;;;;;;;;;;10.49;78.37;99663.13;10537577;28;20052;-77
2022/09/16 03:27:10;;;;;;;8.48;3.05;;;;;;;10.33;79.04;99652.94;10534592;28;19928;-78
2022/09/16 03:32:20;;;;;;;4.95;3.17;;;;;;;10.54;78.46;99665.38;10530631;28;20491;-79
2022/09/16 03:37:30;;;;;;;6.15;2.80;;;;;;;10.52;78.57;99665.50;10517868;28;20532;-79
2022/09/16 03:42:33;;;;;;;5.32;2.92;;;;;;;10.74;77.51;99663.53;10515560;28;20079;-80
2022/09/16 03:47:36;;;;;;;8.43;2.80;;;;;;;10.42;77.88;99658.44;10498583;28;20720;-80
2022/09/16 03:52:40;;;;;;;6.15;2.55;;;;;;;10.71;76.91;99661.97;10506056;28;20083;-80
2022/09/16 03:57:43;;;;;;;6.95;2.00;;;;;;;10.36;78.37;99663.38;10515660;28;20040;-80
2022/09/16 04:02:46;;;;;;;5.07;2.30;;;;;;;10.50;77.77;99655.91;10533754;28;20080;-79
2022/09/16 04:07:50;;;;;;;6.57;2.40;;;;;;;10.69;76.68;99666.63;10532581;28;20097;-80
2022/09/16 04:12:57;;;;;;;4.25;2.25;;;;;;;10.49;77.38;99656.91;10526219;28;20100;-80
2022/09/16 04:18:00;;;;;;;3.78;1.95;;;;;;;10.49;77.08;99647.00;10507063;28;20092;-80
2022/09/16 04:23:04;;;;;;;4.57;1.80;;;;;;;10.74;76.07;99653.63;10531018;28;20040;-78
2022/09/16 04:28:07;;;;;;;4.88;1.95;;;;;;;10.69;76.17;99639.78;10550952;28;20048;-80
2022/09/16 04:33:10;;;;;;;4.40;2.10;;;;;;;10.57;76.43;99638.25;10542435;28;20084;-78
2022/09/16 04:38:14;;;;;;;;;;;;;;;10.27;77.69;99640.09;10535239;28;20434;-80
2022/09/16 04:43:17;;;;;;;3.17;2.00;;;;;;;10.54;76.50;99644.75;10532730;28;19991;-79
2022/09/16 04:48:19;;;;;;;;;;;;;;;10.37;77.36;99626.69;10525912;28;20100;-80
2022/09/16 04:53:23;;;;;;;7.03;1.80;;;;;;;10.20;77.81;99638.94;10522764;28;20358;-80
2022/09/16 04:58:28;;;;;;;5.70;2.30;;;;;;;10.53;76.42;99632.31;10532491;28;20063;-78
2022/09/16 05:03:32;;;;;;;5.63;1.83;;;;;;;10.04;78.63;99635.94;10531233;28;20532;-80
2022/09/16 05:08:36;;;;;;;7.65;2.13;;;;;;;10.20;78.32;99638.09;10525620;28;20498;-77
2022/09/16 05:13:39;;;;;;;7.07;2.28;;;;;;;10.20;78.16;99638.94;10525170;28;20070;-79
2022/09/16 05:18:44;;;;;;;4.05;2.03;;;;;;;10.62;76.93;99641.34;10525781;28;20052;-77
2022/09/16 05:23:48;;;;;;;4.78;2.08;;;;;;;10.68;76.25;99643.47;10561326;28;20044;-77
2022/09/16 05:28:51;;;;;;;7.40;2.17;;;;;;;10.50;77.30;99653.22;10513243;28;20452;-80
2022/09/16 05:33:55;;;;;;;5.65;2.83;;;;;;;10.62;76.63;99665.53;10521656;28;20048;-81
2022/09/16 05:38:59;;;;;;;6.55;2.95;;;;;;;10.52;77.26;99651.25;10525860;28;20068;-80
2022/09/16 05:44:22;;;;;;;5.78;3.75;;;;;;;10.38;78.19;99653.38;10526313;28;20036;-80
2022/09/16 05:49:25;;;;;;;8.70;3.95;;;;;;;10.50;78.05;99651.38;10524053;28;20037;-80
2022/09/16 05:54:30;;;;;;;6.35;2.47;;;;;;;10.55;77.42;99659.84;10537118;28;20052;-80
2022/09/16 05:59:33;;;;;;;4.68;2.80;;;;;;;10.52;78.03;99659.31;10522066;28;20044;-80
2022/09/16 06:04:35;;;;;;;6.72;2.67;;;;;;;10.38;78.67;99660.56;10524249;28;20049;-80
2022/09/16 06:09:40;;;;;;;5.10;2.80;;;;;;;10.73;77.59;99667.22;10527451;28;20044;-79
2022/09/16 06:14:43;;;;;;;4.63;3.03;;;;;;;10.46;78.36;99679.50;10518348;28;20068;-80
2022/09/16 06:19:45;;;;;;;;;;;;;;;10.70;78.02;99683.63;10526325;28;20114;-79
2022/09/16 06:24:51;;;;;;;6.00;3.47;;;;;;;10.89;79.28;99674.66;10512504;28;20010;-79
2022/09/16 06:29:53;;;;;;;4.65;2.70;;;;;;;10.29;81.74;99664.13;10521436;28;20067;-79
2022/09/16 06:34:56;;;;;;;;;;;;;;;10.10;81.99;99670.31;10519345;28;20712;-79
2022/09/16 06:40:00;;;;;;;6.50;1.83;;;;;;;10.28;80.03;99671.28;10499750;28;20015;-78
2022/09/16 06:45:04;;;;;;;8.20;3.00;;;;;;;10.30;80.76;99671.16;10498470;28;20044;-80
2022/09/16 06:50:07;;;;;;;5.82;2.53;;;;;;;10.52;80.94;99659.31;10527759;28;20044;-80
2022/09/16 06:55:11;;;;;;;6.00;3.50;;;;;;;10.64;80.58;99651.94;10514539;28;20076;-80
2022/09/16 07:00:14;;;;;;;8.07;3.65;;;;;;;10.60;81.29;99662.13;10520649;28;20076;-80
2022/09/16 07:05:17;;;;;;;7.95;4.20;;;;;;;10.59;80.93;99660.44;10526466;28;20094;-79
2022/09/16 07:10:22;;;;;;;12.13;3.67;;;;;;;10.78;80.52;99671.16;10511840;28;20072;-79
2022/09/16 07:15:25;;;;;;;11.75;3.30;;;;;;;11.13;78.46;99663.50;10528519;28;20078;-80
2022/09/16 07:20:28;;;;;;;;;;;;;;;11.59;77.69;99673.38;10521730;28;20600;-80
2022/09/16 07:25:32;;;;;;;4.95;2.60;;;;;;;11.73;76.46;99672.88;10521688;28;19920;-79
2022/09/16 07:30:37;;;;;;;6.05;2.88;;;;;;;11.86;74.55;99672.53;10502791;28;20055;-80
2022/09/16 07:35:40;;;;;;;4.78;1.88;;;;;;;11.78;73.12;99677.81;10508408;28;20427;-81
2022/09/16 07:40:44;;;;;;;2.13;1.50;;;;;;;11.66;73.46;99679.03;10522260;28;20478;-79
2022/09/16 07:45:47;;;;;;;6.57;1.67;;;;;;;12.36;71.77;99680.19;10519661;28;20563;-78
2022/09/16 07:50:55;;;;;;;6.00;1.83;;;;;;;11.85;70.72;99688.84;10502881;28;20120;-80
2022/09/16 07:56:04;;;;;;;5.20;1.70;;;;;;;11.77;72.17;99691.44;10530168;28;20047;-80
2022/09/16 08:01:07;;;;;;;3.95;1.23;;;;;;;12.15;71.24;99690.38;10533463;28;20036;-81
2022/09/16 08:06:12;;;;;;;6.32;1.90;;;;;;;12.36;68.99;99690.13;10533623;28;20489;-80
2022/09/16 08:11:16;;;;;;;4.60;1.20;;;;;;;13.44;66.15;99693.56;10508756;28;20473;-79
2022/09/16 08:16:21;;;;;;;4.05;1.10;;;;;;;13.13;66.34;99699.38;10535253;28;20072;-80
2022/09/16 08:21:26;;;;;;;2.88;0.82;;;;;;;13.76;63.97;99689.31;10518573;28;20043;-80
2022/09/16 08:26:30;;;;;;;3.65;0.75;;;;;;;13.26;63.74;99693.56;10530605;28;20056;-81
2022/09/16 08:31:33;;;;;;;7.78;0.73;;;;;;;13.07;63.06;99688.38;10529521;28;20094;-80
2022/09/16 08:36:36;;;;;;;2.65;0.95;;;;;;;13.80;60.77;99691.53;10520228;28;20126;-79
2022/09/16 08:41:56;;;;;;;7.85;0.95;;;;;;;13.37;62.07;99670.91;10531970;28;20047;-80
2022/09/16 08:47:02;;;;;;;1.65;0.65;;;;;;;13.78;61.22;99684.59;10524977;28;20071;-79
2022/09/16 08:52:11;;;;;;;6.72;1.20;;;;;;;14.14;58.69;99688.78;10520290;28;20079;-80
2022/09/16 08:57:20;;;;;;;5.47;1.02;;;;;;;13.46;57.50;99688.81;10522525;28;20468;-80
2022/09/16 09:02:37;;;;;;;6.63;0.90;;;;;;;14.46;56.87;99706.13;10526205;28;20040;-80
2022/09/16 09:07:53;;;;;;;6.63;1.25;;;;;;;15.54;52.52;99681.56;10534055;28;20059;-80
2022/09/16 09:13:08;;;;;;;4.95;0.75;;;;;;;15.23;53.92;99693.13;10521898;28;20052;-80
2022/09/16 09:18:30;;;;;;;4.25;1.05;;;;;;;15.21;52.76;99697.84;10504044;28;20044;-80
2022/09/16 09:23:53;;;;;;;4.75;1.02;;;;;;;14.64;50.25;99678.94;10523050;28;20071;-78
2022/09/16 09:29:21;;;;;;;9.88;1.38;;;;;;;15.73;48.49;99687.63;10499214;28;20118;-81
2022/09/16 09:34:38;;;;;;;5.20;1.23;;;;;;;15.25;49.20;99679.44;10527373;28;20072;-79
2022/09/16 09:39:56;;;;;;;2.72;0.50;;;;;;;14.46;49.70;99678.25;10517698;28;20040;-79
2022/09/16 09:45:04;;;;;;;5.63;1.00;;;;;;;15.55;47.77;99674.28;10523172;28;20188;-79
2022/09/16 09:50:17;;;;;;;3.92;1.20;;;;;;;14.52;48.67;99680.28;10518436;28;20047;-80
2022/09/16 09:55:23;;;;;;;8.52;2.20;;;;;;;14.67;48.64;99670.50;10500828;28;20068;-78
2022/09/16 10:00:27;;;;;;;13.90;1.95;;;;;;;14.85;49.12;99655.97;10519884;28;20041;-80
2022/09/16 10:05:31;;;;;;;6.63;1.60;;;;;;;15.35;47.52;99649.50;10500234;28;20143;-79
2022/09/16 10:10:38;;;;;;;8.15;1.95;;;;;;;15.27;48.06;99658.44;10519739;28;20040;-80
2022/09/16 10:15:43;;;;;;;7.95;1.10;;;;;;;14.10;51.21;99662.28;10515070;28;20462;-80
2022/09/16 10:20:57;;;;;;;6.18;0.80;;;;;;;14.01;51.25;99658.69;10516738;28;20044;-80
2022/09/16 10:26:07;;;;;;;3.28;1.17;;;;;;;15.91;47.73;99645.75;10529334;28;20044;-80
2022/09/16 10:31:11;;;;;;;5.43;0.80;;;;;;;16.85;43.87;99637.50;10538577;28;20428;-81
2022/09/16 10:36:19;;;;;;;2.83;0.60;;;;;;;15.91;44.52;99637.63;10508016;28;20466;-79
2022/09/16 10:41:24;;;;;;;5.93;0.90;;;;;;;16.59;45.54;99641.44;10528774;28;20075;-80
2022/09/16 10:46:29;;;;;;;4.72;0.90;;;;;;;17.23;42.94;99623.94;10533548;28;20090;-79
2022/09/16 10:51:33;;;;;;;5.50;0.90;;;;;;;16.72;44.24;99629.97;10515490;28;20085;-80
2022/09/16 10:56:48;;;;;;;4.75;0.70;;;;;;;16.72;44.26;99619.13;10516960;28;20072;-81
2022/09/16 11:02:04;;;;;;;3.70;0.70;;;;;;;17.50;42.66;99617.00;10499446;28;20723;-80
2022/09/16 11:07:23;;;;;;;6.05;1.00;;;;;;;15.99;43.46;99616.91;10519642;28;20516;-80
2022/09/16 11:12:48;;;;;;;7.22;1.30;;;;;;;17.24;41.81;99612.03;10524133;28;20048;-80
2022/09/16 11:18:07;;;;;;;4.63;0.77;;;;;;;16.82;42.29;99594.47;10507539;28;20480;-80
2022/09/16 11:23:25;;;;;;;5.97;0.88;;;;;;;17.08;42.44;99601.31;10536345;28;20040;-79
2022/09/16 11:29:09;;;;;;;5.60;1.17;;;;;;;15.12;44.91;99609.63;10524653;28;20116;-78
2022/09/16 11:34:27;;;;;;;1.95;0.47;;;;;;;17.01;40.47;99591.22;10398786;28;20125;-79
2022/09/16 11:39:46;;;;;;;7.00;0.80;;;;;;;17.13;41.33;99602.47;10503797;28;20080;-80
2022/09/16 11:44:55;;;;;;;3.70;1.00;;;;;;;18.23;39.59;99603.47;10530365;28;20044;-80
2022/09/16 11:50:12;;;;;;;1.73;0.68;;;;;;;16.08;41.97;99607.72;10533333;28;20063;-80
2022/09/16 11:55:34;;;;;;;5.05;0.88;;;;;;;16.48;41.40;99608.47;10527344;28;20123;-80
2022/09/16 12:00:40;;;;;;;4.88;0.75;;;;;;;16.84;42.52;99614.13;10531845;28;20550;-82
2022/09/16 12:05:52;;;;;;;2.60;0.55;;;;;;;14.42;48.82;99615.59;10536018;28;20083;-80
2022/09/16 12:11:00;;;;;;;1.20;0.40;;;;;;;12.22;49.14;99639.44;10531688;28;20063;-81
2022/09/16 12:16:06;;;;;;;0.95;0.20;;;;;;;11.81;52.34;99660.53;10514126;28;20439;-80
2022/09/16 12:21:15;;;;;;;1.80;0.45;;;;;;;10.72;64.52;99658.28;10537530;28;20036;-79
2022/09/16 12:26:21;;;;;;;0.43;0.20;;;;;;;10.63;69.99;99645.72;10526248;28;20456;-79
2022/09/16 12:31:31;;;;;;;0.80;0.40;;;;;;;12.72;68.37;99652.38;10539146;28;20112;-81
2022/09/16 12:36:39;;;;;;;0.90;0.20;;;;;;;14.13;60.82;99645.75;10523862;28;20041;-80
2022/09/16 12:42:01;;;;;;;0.35;0.10;;;;;;;15.21;56.82;99630.22;10526109;28;20064;-80
2022/09/16 12:47:50;;;;;;;1.08;0.30;;;;;;;16.18;57.16;99623.72;10524203;28;20076;-80
2022/09/16 12:53:14;;;;;;;2.72;1.38;;;;;;;16.68;52.03;99620.53;10531204;28;20124;-81
2022/09/16 12:58:59;;;;;;;2.65;0.20;;;;;;;16.66;50.78;99617.13;10530565;28;20075;-80
2022/09/16 13:04:14;;;;;;;1.83;0.50;;;;;;;17.99;49.31;99601.94;10524681;28;20075;-81
2022/09/16 13:09:23;;;;;;;1.90;0.85;;;;;;;18.36;46.09;99631.63;10536706;28;20045;-80
2022/09/16 13:14:31;;;;;;;4.97;0.80;;;;;;;19.53;43.38;99584.00;10540592;28;20123;-80
2022/09/16 13:19:45;;;;;;;3.97;1.48;;;;;;;17.11;47.19;99581.94;10535492;28;20533;-80
2022/09/16 13:24:54;;;;;;;4.53;1.25;;;;;;;19.53;43.37;99586.72;10532263;28;20035;-79
2022/09/16 13:30:30;;;;;;;2.22;0.52;;;;;;;20.36;40.43;99585.78;10537499;28;20043;-81
2022/09/16 13:35:39;;;;;;;3.47;0.88;;;;;;;19.89;41.85;99577.47;10525217;28;20563;-81
2022/09/16 13:40:55;;;;;;;2.20;0.43;;;;;;;18.97;41.71;99573.19;10539011;28;20060;-79
2022/09/16 13:46:07;;;;;;;6.28;0.60;;;;;;;18.42;41.92;99540.28;10529394;28;20097;-79
2022/09/16 13:51:17;;;;;;;3.10;0.67;;;;;;;18.26;43.00;99559.59;10534788;28;20385;-80
2022/09/16 13:56:47;;;;;;;4.28;0.70;;;;;;;17.41;44.40;99553.81;10533611;28;20455;-80
2022/09/16 14:02:09;;;;;;;2.95;0.75;;;;;;;17.00;45.58;99548.84;10544165;28;20066;-80
2022/09/16 14:07:26;;;;;;;5.60;1.05;;;;;;;17.06;44.03;99546.41;10561544;28;20048;-81
2022/09/16 14:12:41;;;;;;;4.60;1.02;;;;;;;16.69;43.10;99540.00;10555389;28;20036;-79
2022/09/16 14:17:47;;;;;;;6.07;0.90;;;;;;;16.61;42.33;99530.09;10568543;28;20036;-78
2022/09/16 14:23:04;;;;;;;3.85;0.73;;;;;;;18.19;40.35;99534.25;10586214;22;20047;-80
2022/09/16 14:28:17;;;;;;;5.25;0.77;;;;;;;17.35;40.15;99524.69;10585553;28;20062;-80
2022/09/16 14:33:24;;;;;;;3.95;1.15;;;;;;;16.82;40.93;99540.22;10579753;28;20058;-80
2022/09/16 14:38:34;;;;;;;2.95;0.82;;;;;;;16.42;41.91;99531.44;10575187;28;20040;-78
2022/09/16 14:43:50;;;;;;;7.43;1.13;;;;;;;16.10;42.13;99541.50;10582045;28;20039;-79
2022/09/16 14:48:53;;;;;;;9.18;1.90;;;;;;;16.00;42.60;99548.19;10585255;28;20043;-80
2022/09/16 14:53:58;;;;;;;4.10;0.77;;;;;;;15.01;45.90;99566.72;10585508;28;20072;-81
2022/09/16 14:59:16;;;;;;;2.83;0.70;;;;;;;13.77;50.63;99597.41;10583548;28;20490;-80
2022/09/16 15:04:25;;;;;;;5.18;0.85;;;;;;;12.68;62.12;99583.66;10572441;28;20051;-79
2022/09/16 15:09:37;;;;;;;5.88;0.80;;;;;;;11.59;66.44;99581.94;10571049;28;20036;-78
2022/09/16 15:14:41;;;;;;;2.22;0.57;;;;;;;12.41;66.03;99569.31;10571411;28;20496;-78
2022/09/16 15:19:51;;;;;;;3.17;0.93;;;;;;;12.06;63.53;99576.38;10574400;28;20040;-79
2022/09/16 15:24:57;;;;;;;7.22;1.20;;;;;;;12.08;62.86;99581.59;10563719;28;20070;-81
2022/09/16 15:30:04;;;;;;;4.70;1.77;;;;;;;13.91;60.85;99580.56;10566855;28;20036;-78
2022/09/16 15:35:22;;;;;;;17.17;2.08;;;;;;;13.48;58.19;99577.03;10583724;28;20082;-80
2022/09/16 15:40:34;;;;;;;6.97;1.10;;;;;;;14.88;56.37;99574.53;10563966;28;20484;-77
2022/09/16 15:45:39;;;;;;;4.95;1.27;;;;;;;15.01;53.52;99572.97;10542687;28;20074;-77
2022/09/16 15:50:46;;;;;;;5.38;1.05;;;;;;;14.96;51.39;99564.53;10569945;28;20385;-78
2022/09/16 15:56:00;;;;;;;5.55;1.02;;;;;;;15.25;50.14;99558.53;10567016;28;20048;-78
2022/09/16 16:01:10;;;;;;;7.78;1.05;;;;;;;14.97;48.74;99557.25;10591879;28;20509;-78
2022/09/16 16:06:13;;;;;;;3.25;0.65;;;;;;;15.14;48.12;99568.84;10586279;28;20507;-78
2022/09/16 16:11:17;;;;;;;2.95;0.80;;;;;;;14.95;48.65;99564.72;10569169;28;20139;-77
2022/09/16 16:16:22;;;;;;;3.42;0.82;;;;;;;14.05;50.25;99567.44;10567576;28;20046;-78
2022/09/16 16:21:25;;;;;;;3.70;0.80;;;;;;;14.06;50.52;99558.28;10569640;28;20082;-78
2022/09/16 16:26:28;;;;;;;2.97;0.40;;;;;;;13.96;51.67;99558.47;10579388;28;20078;-79
2022/09/16 16:31:33;;;;;;;6.07;0.98;;;;;;;14.41;50.73;99546.38;10570044;28;20040;-78
2022/09/16 16:36:36;;;;;;;7.03;0.80;;;;;;;15.01;49.60;99542.38;10602732;27;20065;-77
2022/09/16 16:41:39;;;;;;;11.57;0.85;;;;;;;14.43;50.43;99540.81;10581698;28;20077;-78
2022/09/16 16:46:43;;;;;;;4.90;0.88;;;;;;;13.46;52.33;99546.69;10584032;28;20114;-79
2022/09/16 16:51:48;;;;;;;6.43;1.48;;;;;;;13.66;52.11;99547.28;10578253;28;20042;-78
2022/09/16 16:56:51;;;;;;;5.78;0.88;;;;;;;13.74;52.72;99561.78;10574285;28;20031;-78
2022/09/16 17:01:57;;;;;;;5.13;1.30;;;;;;;13.57;59.46;99587.88;10574872;28;20070;-77
2022/09/16 17:07:00;;;;;;;6.85;1.40;;;;;;;11.60;71.98;99604.28;10581359;28;20074;-77
2022/09/16 17:12:23;;;;;;;14.25;1.65;;;;;;;11.40;72.05;99595.47;10580859;28;20039;-77
2022/09/16 17:17:27;;;;;;;6.38;1.30;;;;;;;11.32;73.04;99592.69;10571878;28;20052;-77
2022/09/16 17:22:33;;;;;;;7.55;1.48;;;;;;;10.88;71.34;99597.75;10567953;28;20546;-78
2022/09/16 17:27:36;;;;;;;10.73;1.42;;;;;;;10.92;69.56;99597.34;10588282;28;20032;-79
2022/09/16 17:32:40;;;;;;;;;;;;;;;11.34;68.93;99606.84;10579315;27;20040;-78
2022/09/16 17:37:43;;;;;;;6.25;1.52;;;;;;;11.11;69.40;99601.81;10566514;28;20273;-78
2022/09/16 17:42:50;;;;;;;;;;;;;;;11.05;67.01;99602.38;10570812;28;20074;-79
2022/09/16 17:47:56;;;;;;;4.13;1.67;;;;;;;11.43;66.41;99590.63;10562628;28;19923;-78
2022/09/16 17:52:59;;;;;;;8.63;1.55;;;;;;;11.27;65.60;99591.31;10575901;28;20043;-79
2022/09/16 17:58:02;;;;;;;10.55;1.60;;;;;;;11.10;65.37;99600.09;10580478;28;20051;-78
2022/09/16 18:03:06;;;;;;;8.75;1.77;;;;;;;11.73;63.92;99600.25;10561221;28;20044;-78
2022/09/16 18:08:09;;;;;;;13.00;1.30;;;;;;;11.12;63.41;99599.97;10564602;28;20055;-79
2022/09/16 18:13:12;;;;;;;11.23;1.27;;;;;;;11.37;61.88;99601.16;10573583;28;20033;-78
2022/09/16 18:18:18;;;;;;;;;;;;;;;11.17;61.96;99605.78;10563767;28;20036;-78
2022/09/16 18:23:21;;;;;;;11.85;1.85;;;;;;;11.42;61.37;99599.72;10575767;28;19931;-78
2022/09/16 18:28:24;;;;;;;9.77;1.55;;;;;;;11.42;60.61;99605.09;10587710;28;20028;-78
2022/09/16 18:33:28;;;;;;;8.85;1.55;;;;;;;11.86;59.33;99615.19;10584102;28;20085;-79
2022/09/16 18:38:32;;;;;;;17.58;2.70;;;;;;;11.63;59.37;99607.53;10581712;28;20380;-78
2022/09/16 18:43:38;;;;;;;9.50;1.58;;;;;;;11.86;60.18;99624.09;10574892;28;20039;-78
2022/09/16 18:48:44;;;;;;;10.88;1.55;;;;;;;11.80;60.89;99610.41;10572746;28;20039;-78
2022/09/16 18:53:48;;;;;;;9.55;2.00;;;;;;;11.78;61.68;99613.25;10561966;28;20054;-78
2022/09/16 18:58:52;;;;;;;11.15;1.80;;;;;;;11.85;60.59;99602.75;10558369;28;20044;-78
2022/09/16 19:04:18;;;;;;;13.25;1.75;;;;;;;12.10;61.74;99606.53;10575725;28;20032;-78
2022/09/16 19:09:22;;;;;;;11.07;2.35;;;;;;;10.94;66.35;99614.16;10578395;28;20044;-79
2022/09/16 19:14:26;;;;;;;13.63;1.67;;;;;;;10.58;70.95;99618.44;10588690;28;20042;-78
2022/09/16 19:19:30;;;;;;;7.78;1.50;;;;;;;10.51;73.84;99625.41;10567159;28;20074;-78
2022/09/16 19:24:33;;;;;;;15.50;1.58;;;;;;;10.36;75.44;99633.00;10576357;28;20101;-78
2022/09/16 19:29:36;;;;;;;10.63;1.50;;;;;;;10.23;77.58;99633.31;10570131;28;20096;-77
2022/09/16 19:34:41;;;;;;;;;;;;;;;9.87;79.94;99630.31;10571155;28;20066;-77
2022/09/16 19:39:43;;;;;;;8.18;2.40;;;;;;;9.54;83.28;99638.63;10573456;28;19927;-77
2022/09/16 19:44:46;;;;;;;;;;;;;;;9.36;86.19;99649.16;10586695;28;20073;-78
2022/09/16 19:49:50;;;;;;;8.70;1.30;;;;;;;9.33;86.21;99641.38;10612689;28;19919;-77
2022/09/16 19:54:53;;;;;;;6.72;0.95;;;;;;;9.28;87.34;99641.78;10594919;27;20539;-78
2022/09/16 19:59:56;;;;;;;;;;;;;;;9.29;87.31;99664.91;10585896;28;20047;-79
2022/09/16 20:05:00;;;;;;;7.82;2.13;;;;;;;9.26;88.41;99659.81;10578395;28;19943;-79
2022/09/16 20:10:07;;;;;;;6.90;2.15;;;;;;;9.28;87.65;99663.22;10582354;28;20051;-79
2022/09/16 20:15:10;;;;;;;5.18;1.45;;;;;;;9.25;89.21;99664.34;10583279;28;20043;-80
2022/09/16 20:20:15;;;;;;;8.82;1.50;;;;;;;9.16;89.29;99657.09;10583658;28;20054;-79
2022/09/16 20:25:18;;;;;;;12.38;1.60;;;;;;;9.21;92.82;99672.75;10611688;22;20074;-81
2022/09/16 20:30:25;;;;;;;4.65;1.20;;;;;;;9.00;92.86;99676.31;10595497;28;20039;-79
2022/09/16 20:35:29;;;;;;;;;;;;;;;9.24;95.13;99672.50;10571078;28;20044;-78
2022/09/16 20:40:32;;;;;;;9.20;1.67;;;;;;;9.36;94.03;99679.47;10554650;28;19958;-77
2022/09/16 20:45:35;;;;;;;7.43;1.45;;;;;;;9.03;94.52;99673.38;10569889;28;20039;-77
2022/09/16 20:50:40;;;;;;;5.88;1.77;;;;;;;8.98;94.98;99680.13;10564294;28;20491;-77
2022/09/16 20:55:42;;;;;;;9.00;1.55;;;;;;;8.90;97.77;99686.13;10561961;28;20552;-76
2022/09/16 21:00:46;;;;;;;9.85;1.95;;;;;;;9.07;99.58;99682.00;10550621;28;20040;-76
2022/09/16 21:05:51;;;;;;;8.25;1.80;;;;;;;9.18;98.28;99681.91;10540723;28;20070;-76
2022/09/16 21:10:59;;;;;;;3.53;1.55;;;;;;;9.11;97.69;99679.91;10551519;28;20040;-77
2022/09/16 21:16:02;;;;;;;5.35;1.70;;;;;;;9.13;100.00;99681.47;10557242;28;20123;-77
2022/09/16 21:21:08;;;;;;;6.20;1.90;;;;;;;8.94;100.00;99682.22;10561695;28;20051;-76
2022/09/16 21:26:13;;;;;;;6.45;2.30;;;;;;;8.98;100.00;99694.34;10551138;28;20114;-76
2022/09/16 21:31:17;;;;;;;4.10;1.52;;;;;;;8.63;97.26;99693.81;10537696;28;20038;-77
2022/09/16 21:36:23;;;;;;;7.57;2.47;;;;;;;9.25;95.76;99701.00;10544382;28;20046;-76
2022/09/16 21:41:26;;;;;;;9.45;2.72;;;;;;;9.12;96.03;99700.34;10564018;28;20147;-75
2022/09/16 21:46:31;;;;;;;6.22;2.03;;;;;;;9.16;95.21;99707.13;10561390;28;20122;-78
2022/09/16 21:51:37;;;;;;;4.93;1.65;;;;;;;9.17;94.61;99698.13;10549120;28;20116;-77
2022/09/16 21:56:41;;;;;;;3.53;1.17;;;;;;;9.23;93.75;99701.13;10543164;28;20111;-77
2022/09/16 22:01:44;;;;;;;2.10;1.33;;;;;;;8.92;93.88;99707.44;10557998;28;20127;-77
2022/09/16 22:06:48;;;;;;;3.72;1.52;;;;;;;9.22;93.30;99702.13;10570577;28;20066;-77
2022/09/16 22:11:51;;;;;;;7.18;1.45;;;;;;;9.12;94.15;99703.03;10555909;28;20040;-77
2022/09/16 22:16:54;;;;;;;;;;;;;;;9.12;93.96;99697.69;10560979;28;20043;-77
2022/09/16 22:21:58;;;;;;;7.90;1.88;;;;;;;8.94;94.72;99700.97;10564676;28;19982;-78
2022/09/16 22:27:00;;;;;;;4.55;1.98;;;;;;;9.16;94.73;99691.06;10569811;28;20096;-76
2022/09/16 22:32:03;;;;;;;;;;;;;;;9.02;94.89;99697.59;10559395;28;20490;-78
2022/09/16 22:37:08;;;;;;;4.88;2.75;;;;;;;8.91;95.93;99687.81;10562868;28;20006;-77
2022/09/16 22:42:10;;;;;;;4.18;1.30;;;;;;;9.20;94.59;99689.84;10555446;28;20056;-77
2022/09/16 22:47:13;;;;;;;;;;;;;;;8.73;98.01;99692.91;10552980;28;20552;-78
2022/09/16 22:52:17;;;;;;;5.20;1.52;;;;;;;9.28;97.03;99706.09;10561768;28;19920;-77
2022/09/16 22:57:20;;;;;;;8.70;1.98;;;;;;;9.42;95.52;99710.25;10538466;28;20123;-78
2022/09/16 23:02:23;;;;;;;;;;;;;;;9.18;96.78;99681.91;10555867;28;20043;-78
2022/09/16 23:07:28;;;;;;;5.15;1.77;;;;;;;9.16;96.05;99710.69;10559510;28;20031;-78
2022/09/16 23:12:31;;;;;;;4.63;1.70;;;;;;;9.33;95.67;99708.38;10567017;28;20412;-77
2022/09/16 23:17:34;;;;;;;5.70;1.95;;;;;;;9.29;95.96;99697.06;10562138;28;20101;-78
2022/09/16 23:22:38;;;;;;;;;;;;;;;9.19;95.35;99709.59;10566047;28;20128;-77
2022/09/16 23:27:41;;;;;;;4.88;1.48;;;;;;;9.40;95.14;99713.06;10561530;28;20023;-78
2022/09/16 23:32:44;;;;;;;9.05;2.08;;;;;;;9.21;96.01;99711.13;10567469;28;20385;-78
2022/09/16 23:37:48;;;;;;;9.50;2.67;;;;;;;9.46;94.30;99715.22;10565194;28;20130;-77
2022/09/16 23:42:51;;;;;;;9.00;2.35;;;;;;;9.56;94.16;99717.09;10560157;28;20040;-78
2022/09/16 23:47:54;;;;;;;;;;;;;;;9.37;94.09;99716.00;10563178;28;20107;-78
2022/09/16 23:52:58;;;;;;;11.38;2.03;;;;;;;9.23;95.34;99709.16;10552196;28;20018;-78
2022/09/16 23:58:01;;;;;;;9.82;2.85;;;;;;;9.54;93.97;99711.84;10570751;28;20048;-78
